createdAt,value
2018-12-16T00:02:38.649Z,-0.20
2018-12-16T01:00:14.190Z,-0.80
2018-12-16T02:00:15.468Z,-0.20
2018-12-16T02:03:04.317Z,-0.20
2018-12-16T02:05:57.214Z,-0.10
2018-12-16T02:08:49.050Z,0.00
2018-12-16T02:11:25.852Z,0.00
2018-12-16T02:17:10.423Z,0.00
2018-12-16T02:19:54.510Z,0.10
2018-12-16T02:25:08.450Z,0.00
2018-12-16T02:50:35.681Z,-0.30
2018-12-16T02:53:18.216Z,-0.30
2018-12-16T03:10:06.099Z,-0.60
2018-12-16T03:12:55.847Z,-0.60
2018-12-16T03:18:27.837Z,-0.70
2018-12-16T03:21:05.209Z,-0.70
2018-12-16T03:27:06.764Z,-0.70
2018-12-16T03:29:49.419Z,-0.70
2018-12-16T03:32:30.664Z,-0.80
2018-12-16T03:50:26.049Z,-0.20
2018-12-16T04:05:08.133Z,0.00
2018-12-16T04:07:47.614Z,0.10
2018-12-16T04:10:25.924Z,0.20
2018-12-16T04:13:12.499Z,0.20
2018-12-16T04:15:56.167Z,0.30
2018-12-16T04:18:36.153Z,0.30
2018-12-16T04:21:16.014Z,0.30
2018-12-16T04:26:45.530Z,0.40
2018-12-16T04:41:37.382Z,0.00
2018-12-16T05:14:26.081Z,0.10
2018-12-16T05:17:05.495Z,0.20
2018-12-16T05:22:20.096Z,0.30
2018-12-16T05:25:01.217Z,0.40
2018-12-16T05:27:29.905Z,0.50
2018-12-16T05:30:08.134Z,0.50
2018-12-16T05:32:37.336Z,0.60
2018-12-16T05:35:15.503Z,0.70
2018-12-16T05:40:28.855Z,0.70
2018-12-16T05:43:19.091Z,0.70
2018-12-16T06:13:18.493Z,0.80
2018-12-16T06:36:21.780Z,0.40
2018-12-16T06:39:15.665Z,0.40
2018-12-16T06:50:28.603Z,0.30
2018-12-16T06:52:57.639Z,0.30
2018-12-16T06:55:46.852Z,0.30
2018-12-16T06:58:38.898Z,0.30
2018-12-16T07:07:19.812Z,0.40
2018-12-16T07:09:55.485Z,0.40
2018-12-16T07:12:47.821Z,0.50
2018-12-16T07:18:17.951Z,0.60
2018-12-16T07:20:46.727Z,0.50
2018-12-16T07:23:28.987Z,0.60
2018-12-16T07:25:57.516Z,0.60
2018-12-16T07:40:27.396Z,0.60
2018-12-16T07:46:47.206Z,0.50
2018-12-16T07:49:22.884Z,0.50
2018-12-16T08:03:58.167Z,0.40
2018-12-16T08:15:19.739Z,0.50
2018-12-16T08:17:56.227Z,0.50
2018-12-16T08:20:24.791Z,0.50
2018-12-16T08:23:07.769Z,0.50
2018-12-16T08:28:45.639Z,0.60
2018-12-16T08:31:36.716Z,0.60
2018-12-16T08:34:08.113Z,0.60
2018-12-16T08:36:43.027Z,0.70
2018-12-16T08:39:19.724Z,0.70
2018-12-16T08:48:00.436Z,0.80
2018-12-16T08:50:40.576Z,0.80
2018-12-16T08:53:28.089Z,0.70
2018-12-16T08:59:06.707Z,0.70
2018-12-16T09:01:35.063Z,0.80
2018-12-16T09:04:03.538Z,0.90
2018-12-16T09:06:31.855Z,1.00
2018-12-16T09:09:01.847Z,1.10
2018-12-16T09:11:30.054Z,1.10
2018-12-16T09:13:58.273Z,1.10
2018-12-16T09:16:26.509Z,1.20
2018-12-16T09:18:54.753Z,1.20
2018-12-16T09:21:23.026Z,1.20
2018-12-16T09:23:51.220Z,1.30
2018-12-16T09:26:41.054Z,1.30
2018-12-16T09:29:16.232Z,1.30
2018-12-16T09:37:45.818Z,1.30
2018-12-16T09:40:18.712Z,1.20
2018-12-16T09:42:47.333Z,1.20
2018-12-16T09:45:37.357Z,1.20
2018-12-16T09:52:24.665Z,1.10
2018-12-16T09:55:17.592Z,1.10
2018-12-16T09:57:46.031Z,1.20
2018-12-16T10:06:21.521Z,1.20
2018-12-16T10:11:57.357Z,1.20
2018-12-16T10:14:27.899Z,1.30
2018-12-16T10:19:51.862Z,1.30
2018-12-16T10:22:47.089Z,1.30
2018-12-16T10:25:24.076Z,1.30
2018-12-16T10:28:00.553Z,1.30
2018-12-16T10:30:39.939Z,1.20
2018-12-16T10:45:10.121Z,1.20
2018-12-16T10:50:50.905Z,1.30
2018-12-16T10:53:36.615Z,1.30
2018-12-16T10:56:16.767Z,1.30
2018-12-16T11:01:57.428Z,1.30
2018-12-16T11:04:25.662Z,1.40
2018-12-16T11:06:53.879Z,1.40
2018-12-16T11:09:24.200Z,1.50
2018-12-16T11:11:55.097Z,1.50
2018-12-16T11:14:27.055Z,1.40
2018-12-16T11:17:41.120Z,1.40
2018-12-16T11:20:44.578Z,1.50
2018-12-16T11:26:11.021Z,1.50
2018-12-16T11:28:41.287Z,1.50
2018-12-16T11:31:10.664Z,1.60
2018-12-16T11:33:38.962Z,1.70
2018-12-16T11:36:07.404Z,1.70
2018-12-16T11:38:35.720Z,1.80
2018-12-16T11:41:04.667Z,1.80
2018-12-16T11:43:33.130Z,1.80
2018-12-16T11:46:01.369Z,1.80
2018-12-16T11:48:29.547Z,1.80
2018-12-16T11:50:57.950Z,1.70
2018-12-16T11:53:26.176Z,1.90
2018-12-16T11:55:54.610Z,1.90
2018-12-16T11:58:33.570Z,1.90
2018-12-16T12:01:02.175Z,1.80
2018-12-16T12:03:30.845Z,1.90
2018-12-16T12:09:02.279Z,1.90
2018-12-16T12:11:30.638Z,2.00
2018-12-16T12:13:58.974Z,2.00
2018-12-16T12:16:27.354Z,2.10
2018-12-16T12:19:01.570Z,2.00
2018-12-16T12:21:31.234Z,2.00
2018-12-16T12:24:00.713Z,2.00
2018-12-16T12:26:29.138Z,1.90
2018-12-16T12:28:59.542Z,2.00
2018-12-16T12:34:21.567Z,1.90
2018-12-16T12:36:52.612Z,1.80
2018-12-16T12:39:24.032Z,1.80
2018-12-16T12:41:58.681Z,1.80
2018-12-16T12:47:18.641Z,1.80
2018-12-16T12:49:53.744Z,1.70
2018-12-16T12:55:26.799Z,1.60
2018-12-16T12:58:10.148Z,1.60
2018-12-16T13:00:42.098Z,1.70
2018-12-16T13:09:21.246Z,1.80
2018-12-16T13:14:31.729Z,1.80
2018-12-16T13:19:54.827Z,1.80
2018-12-16T13:22:23.346Z,1.80
2018-12-16T13:25:02.919Z,1.80
2018-12-16T13:27:31.430Z,1.90
2018-12-16T13:30:02.457Z,1.90
2018-12-16T13:32:30.888Z,1.90
2018-12-16T13:34:59.415Z,2.00
2018-12-16T13:37:27.957Z,2.10
2018-12-16T13:39:56.402Z,2.00
2018-12-16T13:42:25.199Z,2.00
2018-12-16T13:48:09.894Z,2.00
2018-12-16T13:51:00.522Z,2.00
2018-12-16T14:05:46.724Z,2.00
2018-12-16T14:08:42.796Z,2.00
2018-12-16T14:11:20.450Z,2.00
2018-12-16T14:13:55.099Z,2.00
2018-12-16T14:16:47.063Z,2.10
2018-12-16T14:19:18.796Z,2.10
2018-12-16T14:21:49.107Z,2.20
2018-12-16T14:24:43.454Z,2.20
2018-12-16T14:30:02.108Z,2.20
2018-12-16T14:32:38.115Z,2.20
2018-12-16T14:35:20.550Z,2.20
2018-12-16T14:38:10.965Z,2.10
2018-12-16T14:40:55.315Z,2.10
2018-12-16T14:43:31.557Z,2.20
2018-12-16T14:46:16.346Z,2.20
2018-12-16T14:48:48.824Z,2.20
2018-12-16T14:51:17.158Z,2.20
2018-12-16T14:53:45.368Z,2.20
2018-12-16T14:56:13.782Z,2.20
2018-12-16T14:58:42.015Z,2.20
2018-12-16T15:01:10.468Z,2.10
2018-12-16T15:03:38.673Z,2.20
2018-12-16T15:06:22.871Z,2.10
2018-12-16T15:08:53.561Z,2.00
2018-12-16T15:11:23.928Z,2.00
2018-12-16T15:13:59.715Z,1.90
2018-12-16T15:16:44.132Z,1.90
2018-12-16T15:19:12.942Z,1.90
2018-12-16T15:24:59.430Z,1.80
2018-12-16T15:27:34.321Z,1.80
2018-12-16T15:30:21.151Z,1.70
2018-12-16T15:32:49.689Z,1.70
2018-12-16T15:35:18.264Z,1.70
2018-12-16T15:37:46.875Z,1.80
2018-12-16T15:40:15.263Z,1.80
2018-12-16T15:42:43.528Z,1.80
2018-12-16T15:45:12.037Z,1.90
2018-12-16T15:51:05.159Z,1.90
2018-12-16T15:53:36.780Z,2.00
2018-12-16T15:56:09.291Z,2.00
2018-12-16T15:58:35.493Z,2.00
2018-12-16T16:01:03.953Z,2.00
2018-12-16T16:03:32.357Z,2.10
2018-12-16T16:06:00.586Z,2.10
2018-12-16T16:08:29.222Z,2.10
2018-12-16T16:10:57.556Z,2.10
2018-12-16T16:13:25.991Z,2.20
2018-12-16T16:15:54.310Z,2.10
2018-12-16T16:18:22.794Z,2.20
2018-12-16T16:20:51.157Z,2.20
2018-12-16T16:23:19.497Z,2.10
2018-12-16T16:25:47.712Z,2.20
2018-12-16T16:28:24.131Z,2.20
2018-12-16T16:30:54.329Z,2.10
2018-12-16T16:33:22.914Z,2.10
2018-12-16T16:35:51.380Z,2.20
2018-12-16T16:38:19.916Z,2.30
2018-12-16T16:40:48.770Z,2.30
2018-12-16T16:43:21.537Z,2.30
2018-12-16T16:45:51.795Z,2.30
2018-12-16T16:48:20.461Z,2.30
2018-12-16T16:50:48.723Z,2.30
2018-12-16T16:53:17.702Z,2.30
2018-12-16T16:55:45.866Z,2.30
2018-12-16T16:58:14.195Z,2.40
2018-12-16T17:00:46.892Z,2.40
2018-12-16T17:03:15.466Z,2.40
2018-12-16T17:05:56.434Z,2.40
2018-12-16T17:08:30.907Z,2.40
2018-12-16T17:11:02.587Z,2.40
2018-12-16T17:13:38.351Z,2.40
2018-12-16T17:16:18.850Z,2.40
2018-12-16T17:18:53.082Z,2.40
2018-12-16T17:21:26.583Z,2.30
2018-12-16T17:23:54.861Z,2.30
2018-12-16T17:26:29.823Z,2.30
2018-12-16T17:28:54.039Z,2.20
2018-12-16T17:31:22.306Z,2.20
2018-12-16T17:33:50.982Z,2.20
2018-12-16T17:36:19.295Z,2.20
2018-12-16T17:38:47.843Z,2.20
2018-12-16T17:41:16.146Z,2.20
2018-12-16T17:43:48.360Z,2.20
2018-12-16T17:46:25.016Z,2.20
2018-12-16T17:48:54.672Z,2.20
2018-12-16T17:51:23.201Z,2.20
2018-12-16T17:53:54.166Z,2.20
2018-12-16T17:56:40.258Z,2.10
2018-12-16T18:02:25.944Z,2.00
2018-12-16T18:05:03.994Z,2.10
2018-12-16T18:07:46.265Z,2.10
2018-12-16T18:10:23.293Z,2.00
2018-12-16T18:13:04.185Z,2.00
2018-12-16T18:15:34.286Z,1.90
2018-12-16T18:18:08.910Z,1.80
2018-12-16T18:23:42.652Z,1.90
2018-12-16T18:26:14.197Z,1.90
2018-12-16T18:32:08.580Z,2.00
2018-12-16T18:34:42.864Z,2.00
2018-12-16T18:37:16.786Z,1.90
2018-12-16T18:39:51.110Z,1.90
2018-12-16T18:42:30.406Z,1.90
2018-12-16T18:48:06.622Z,2.00
2018-12-16T18:50:43.134Z,2.00
2018-12-16T18:59:48.142Z,1.80
2018-12-16T19:02:17.716Z,1.80
2018-12-16T19:10:57.707Z,1.90
2018-12-16T19:13:39.722Z,1.90
2018-12-16T19:16:17.793Z,1.90
2018-12-16T19:18:56.155Z,1.90
2018-12-16T19:21:35.961Z,1.90
2018-12-16T19:24:13.646Z,1.90
2018-12-16T19:26:58.084Z,1.90
2018-12-16T19:29:51.906Z,1.90
2018-12-16T19:32:42.338Z,1.90
2018-12-16T19:38:26.305Z,1.90
2018-12-16T19:56:10.976Z,2.00
2018-12-16T20:32:15.401Z,1.90
2018-12-16T21:51:06.397Z,1.90
2018-12-16T22:12:03.590Z,1.90
2018-12-16T23:42:56.732Z,2.20
